Tenerife Sur, Spain

12:13 PM WEST del 29 Marzo 2017 (GMT +0100)
Calle Obispo Perez Caceres | | Change Station

Alt. 807 ft 28.08 °N, 16.56 °W | Updated 2 minutes ago

Sereno
Sereno
68.9 °F
Sembra 68.9 °F
N
6.2
Vento Variabile Vento da ENE
Gusts 13.7 mph

Oggi
Massima -- | Minima -- °F
--% Possibilità di precip.
Ieri
Massima -- | Minima -- °F
Precip. -- in
Pressione 30.21 in
Visibilità 6.2 miglia
Nuvole Alcuni 3500 ft
Punto di rugiada 52 °F
Umidità 54%
Piovosità 0.00 in
Spessore del manto nevoso Non disponibile.
7:59 AM 8:22 PM
Luna crescente, 3% visible
METAR GCGM 291100Z 21007KT 180V260 9999 FEW035 19/13 Q1023 RMK R09/24003KT 170V320 ARP/25005KT 190V290
Pressione 30.21 in
Visibilità 6.2 miglia
Nuvole Alcuni 3500 ft
Punto di rugiada 52 °F
Umidità 54%
Piovosità 0.00 in
Spessore del manto nevoso Non disponibile.
7:59 AM 8:22 PM
Luna crescente, 3% visible
METAR GCGM 291100Z 21007KT 180V260 9999 FEW035 19/13 Q1023 RMK R09/24003KT 170V320 ARP/25005KT 190V290

Get Severe Weather Alerts

Thanks for signing up!

Be on the lookout for a verification email in your inbox.

You'll start receiving the daily forecast at 8 AM.

×

10-Day Weather Forecast

×

Almanac

Astronomia

Mar. 29, 2017 Alba Tramonto
Ora attuale
Crepuscolo civile
Crepuscolo nautico
Crepuscolo astronomico
Luna
Estensione della luce visibile
Lunghezza del giorno
Tomorrow will be .
, % of the Moon is Illuminated

Gli estremi di oggi

Massime Regione Minime Regione

Community

WunderPhotos

Upload Photos

1,962,540 foto caricate!

WunderBlog® & News

Nearby

Qualità dell'aria

  Qualità dell'aria Indice AQ Inquinante
Not available.

Profondità neve

Stazione Profondità Altitudine

Attività sismica

Città  Distanza Mag. Data & Ora
Minimo Magnitudo Mostrato è 2.5.

Attività sismica

Città  Distanza Mag. Data & Ora
Minimo Magnitudo Mostrato è 2.5.

Temperature delle acque costiere

Località Temperatura

Stations

Stazioni meteo nelle vicinanze

Ubicazione della stazione Temp. Raffreddamento del vento Punto di rugiada Umidità Vento Precip. Alt. Aggiornato Tipo